sensor_id;sensor_type;location;lat;lon;timestamp;pressure;altitude;pressure_sealevel;temperature;humidity
38616;BME280;24370;51.986;4.666;2023-04-28T00:00:46;101434.47;;;19.09;34.74
38616;BME280;24370;51.986;4.666;2023-04-28T00:03:12;101430.00;;;18.85;34.71
38616;BME280;24370;51.986;4.666;2023-04-28T00:05:37;101425.84;;;18.77;34.72
38616;BME280;24370;51.986;4.666;2023-04-28T00:08:02;101432.81;;;18.55;35.79
38616;BME280;24370;51.986;4.666;2023-04-28T00:10:32;101412.66;;;19.26;34.02
38616;BME280;24370;51.986;4.666;2023-04-28T00:12:58;101414.84;;;18.11;36.02
38616;BME280;24370;51.986;4.666;2023-04-28T00:15:23;101405.94;;;18.40;35.33
38616;BME280;24370;51.986;4.666;2023-04-28T00:17:49;101403.16;;;19.21;34.20
38616;BME280;24370;51.986;4.666;2023-04-28T00:20:14;101401.34;;;18.97;34.59
38616;BME280;24370;51.986;4.666;2023-04-28T00:22:40;101411.88;;;17.93;35.36
38616;BME280;24370;51.986;4.666;2023-04-28T00:25:06;101401.69;;;18.09;36.04
38616;BME280;24370;51.986;4.666;2023-04-28T00:27:32;101400.50;;;18.70;35.20
38616;BME280;24370;51.986;4.666;2023-04-28T00:29:58;101400.28;;;18.76;34.78
38616;BME280;24370;51.986;4.666;2023-04-28T00:32:23;101390.72;;;18.72;35.06
38616;BME280;24370;51.986;4.666;2023-04-28T00:34:49;101383.97;;;18.11;35.57
38616;BME280;24370;51.986;4.666;2023-04-28T00:37:14;101368.81;;;18.94;34.43
38616;BME280;24370;51.986;4.666;2023-04-28T00:39:40;101373.53;;;18.34;35.37
38616;BME280;24370;51.986;4.666;2023-04-28T00:42:06;101375.78;;;18.96;34.02
38616;BME280;24370;51.986;4.666;2023-04-28T00:44:31;101368.31;;;18.05;35.14
38616;BME280;24370;51.986;4.666;2023-04-28T00:46:58;101373.00;;;18.74;34.55
38616;BME280;24370;51.986;4.666;2023-04-28T00:49:24;101374.00;;;18.46;34.98
38616;BME280;24370;51.986;4.666;2023-04-28T00:51:50;101359.59;;;18.79;34.13
38616;BME280;24370;51.986;4.666;2023-04-28T00:54:15;101348.34;;;18.72;34.05
38616;BME280;24370;51.986;4.666;2023-04-28T00:56:42;101353.28;;;18.06;34.45
38616;BME280;24370;51.986;4.666;2023-04-28T00:59:07;101349.34;;;18.95;33.84
38616;BME280;24370;51.986;4.666;2023-04-28T01:01:34;101353.44;;;18.28;34.16
38616;BME280;24370;51.986;4.666;2023-04-28T01:03:59;101351.19;;;17.89;35.26
38616;BME280;24370;51.986;4.666;2023-04-28T01:06:26;101343.28;;;18.66;34.00
38616;BME280;24370;51.986;4.666;2023-04-28T01:08:52;101328.41;;;18.38;34.45
38616;BME280;24370;51.986;4.666;2023-04-28T01:11:18;101328.09;;;17.37;35.98
38616;BME280;24370;51.986;4.666;2023-04-28T01:13:43;101321.50;;;17.79;34.77
38616;BME280;24370;51.986;4.666;2023-04-28T01:16:09;101313.44;;;18.10;34.11
38616;BME280;24370;51.986;4.666;2023-04-28T01:18:35;101321.47;;;18.59;33.61
38616;BME280;24370;51.986;4.666;2023-04-28T01:21:00;101320.69;;;17.20;35.41
38616;BME280;24370;51.986;4.666;2023-04-28T01:23:28;101318.28;;;17.69;34.96
38616;BME280;24370;51.986;4.666;2023-04-28T01:25:53;101299.53;;;18.05;34.40
38616;BME280;24370;51.986;4.666;2023-04-28T01:28:18;101302.25;;;17.75;34.81
38616;BME280;24370;51.986;4.666;2023-04-28T01:30:44;101300.63;;;17.15;35.71
38616;BME280;24370;51.986;4.666;2023-04-28T01:33:09;101304.44;;;17.61;35.27
38616;BME280;24370;51.986;4.666;2023-04-28T01:35:34;101297.47;;;17.32;35.42
38616;BME280;24370;51.986;4.666;2023-04-28T01:38:00;101293.59;;;17.13;35.86
38616;BME280;24370;51.986;4.666;2023-04-28T01:40:26;101292.56;;;18.28;34.15
38616;BME280;24370;51.986;4.666;2023-04-28T01:42:51;101287.22;;;18.04;34.00
38616;BME280;24370;51.986;4.666;2023-04-28T01:45:16;101285.41;;;16.93;35.85
38616;BME280;24370;51.986;4.666;2023-04-28T01:47:42;101283.78;;;16.89;36.23
38616;BME280;24370;51.986;4.666;2023-04-28T01:50:07;101269.47;;;16.96;36.53
38616;BME280;24370;51.986;4.666;2023-04-28T01:52:33;101267.66;;;17.55;35.17
38616;BME280;24370;51.986;4.666;2023-04-28T01:54:58;101258.91;;;18.06;34.72
38616;BME280;24370;51.986;4.666;2023-04-28T01:57:24;101266.19;;;17.18;35.85
38616;BME280;24370;51.986;4.666;2023-04-28T01:59:50;101274.19;;;17.71;35.26
38616;BME280;24370;51.986;4.666;2023-04-28T02:02:16;101287.16;;;17.22;35.59
38616;BME280;24370;51.986;4.666;2023-04-28T02:04:41;101277.72;;;17.99;34.71
38616;BME280;24370;51.986;4.666;2023-04-28T02:07:06;101265.41;;;17.69;34.80
38616;BME280;24370;51.986;4.666;2023-04-28T02:09:32;101259.31;;;17.40;35.52
38616;BME280;24370;51.986;4.666;2023-04-28T02:11:58;101255.81;;;17.67;35.31
38616;BME280;24370;51.986;4.666;2023-04-28T02:14:29;101252.41;;;17.90;35.16
38616;BME280;24370;51.986;4.666;2023-04-28T02:16:57;101247.25;;;18.13;34.43
38616;BME280;24370;51.986;4.666;2023-04-28T02:19:22;101241.13;;;18.11;34.88
38616;BME280;24370;51.986;4.666;2023-04-28T02:21:48;101241.34;;;17.78;35.03
38616;BME280;24370;51.986;4.666;2023-04-28T02:24:13;101231.34;;;17.87;34.59
38616;BME280;24370;51.986;4.666;2023-04-28T02:26:38;101230.72;;;18.79;33.74
38616;BME280;24370;51.986;4.666;2023-04-28T02:29:04;101228.13;;;19.02;32.92
38616;BME280;24370;51.986;4.666;2023-04-28T02:31:29;101214.25;;;17.99;34.31
38616;BME280;24370;51.986;4.666;2023-04-28T02:33:54;101212.41;;;18.01;34.48
38616;BME280;24370;51.986;4.666;2023-04-28T02:36:20;101211.06;;;17.87;35.06
38616;BME280;24370;51.986;4.666;2023-04-28T02:38:46;101205.81;;;17.05;36.49
38616;BME280;24370;51.986;4.666;2023-04-28T02:41:11;101211.06;;;17.34;35.93
38616;BME280;24370;51.986;4.666;2023-04-28T02:43:39;101213.63;;;17.08;36.16
38616;BME280;24370;51.986;4.666;2023-04-28T02:46:04;101209.53;;;17.26;36.17
38616;BME280;24370;51.986;4.666;2023-04-28T02:48:30;101204.78;;;17.64;35.63
38616;BME280;24370;51.986;4.666;2023-04-28T02:50:56;101199.34;;;17.42;35.62
38616;BME280;24370;51.986;4.666;2023-04-28T02:53:22;101206.38;;;17.43;36.13
38616;BME280;24370;51.986;4.666;2023-04-28T02:55:47;101196.06;;;17.88;36.20
38616;BME280;24370;51.986;4.666;2023-04-28T02:58:13;101200.84;;;18.03;34.77
38616;BME280;24370;51.986;4.666;2023-04-28T03:00:38;101200.56;;;17.59;36.11
38616;BME280;24370;51.986;4.666;2023-04-28T03:03:04;101197.94;;;17.84;35.07
38616;BME280;24370;51.986;4.666;2023-04-28T03:05:29;101200.38;;;18.41;34.54
38616;BME280;24370;51.986;4.666;2023-04-28T03:07:55;101204.63;;;17.42;35.76
38616;BME280;24370;51.986;4.666;2023-04-28T03:10:20;101209.97;;;18.20;35.19
38616;BME280;24370;51.986;4.666;2023-04-28T03:12:45;101210.44;;;18.31;34.64
38616;BME280;24370;51.986;4.666;2023-04-28T03:15:11;101207.56;;;18.13;35.22
38616;BME280;24370;51.986;4.666;2023-04-28T03:17:37;101197.28;;;18.04;35.11
38616;BME280;24370;51.986;4.666;2023-04-28T03:20:06;101201.59;;;18.32;34.81
38616;BME280;24370;51.986;4.666;2023-04-28T03:22:32;101190.88;;;18.82;34.06
38616;BME280;24370;51.986;4.666;2023-04-28T03:24:58;101187.78;;;18.71;33.68
38616;BME280;24370;51.986;4.666;2023-04-28T03:27:23;101186.41;;;18.13;35.04
38616;BME280;24370;51.986;4.666;2023-04-28T03:29:49;101187.09;;;18.42;34.81
38616;BME280;24370;51.986;4.666;2023-04-28T03:32:14;101181.16;;;18.59;34.31
38616;BME280;24370;51.986;4.666;2023-04-28T03:34:40;101182.81;;;18.86;34.07
38616;BME280;24370;51.986;4.666;2023-04-28T03:37:05;101174.63;;;17.97;35.51
38616;BME280;24370;51.986;4.666;2023-04-28T03:39:31;101175.13;;;18.79;34.43
38616;BME280;24370;51.986;4.666;2023-04-28T03:41:56;101177.13;;;18.49;35.04
38616;BME280;24370;51.986;4.666;2023-04-28T03:44:22;101167.31;;;18.53;35.08
38616;BME280;24370;51.986;4.666;2023-04-28T03:46:48;101168.47;;;18.22;34.97
38616;BME280;24370;51.986;4.666;2023-04-28T03:49:13;101154.19;;;19.18;33.84
38616;BME280;24370;51.986;4.666;2023-04-28T03:51:38;101149.72;;;18.97;33.82
38616;BME280;24370;51.986;4.666;2023-04-28T03:54:04;101151.25;;;19.03;34.30
38616;BME280;24370;51.986;4.666;2023-04-28T03:56:29;101141.47;;;18.59;34.99
38616;BME280;24370;51.986;4.666;2023-04-28T03:58:54;101138.53;;;17.69;36.78
38616;BME280;24370;51.986;4.666;2023-04-28T04:01:20;101136.59;;;17.74;36.04
38616;BME280;24370;51.986;4.666;2023-04-28T04:03:45;101145.59;;;17.17;36.64
38616;BME280;24370;51.986;4.666;2023-04-28T04:06:11;101134.31;;;17.38;36.50
38616;BME280;24370;51.986;4.666;2023-04-28T04:08:36;101119.38;;;17.62;36.11
38616;BME280;24370;51.986;4.666;2023-04-28T04:11:02;101116.13;;;17.56;36.24
38616;BME280;24370;51.986;4.666;2023-04-28T04:13:27;101113.09;;;17.15;36.80
38616;BME280;24370;51.986;4.666;2023-04-28T04:15:52;101106.28;;;17.85;36.19
38616;BME280;24370;51.986;4.666;2023-04-28T04:18:18;101098.72;;;17.23;36.70
38616;BME280;24370;51.986;4.666;2023-04-28T04:20:43;101092.94;;;17.37;36.46
38616;BME280;24370;51.986;4.666;2023-04-28T04:23:08;101096.00;;;17.52;36.52
38616;BME280;24370;51.986;4.666;2023-04-28T04:25:34;101103.56;;;17.61;36.35
38616;BME280;24370;51.986;4.666;2023-04-28T04:28:00;101088.50;;;17.39;37.28
38616;BME280;24370;51.986;4.666;2023-04-28T04:30:25;101092.56;;;17.73;36.05
38616;BME280;24370;51.986;4.666;2023-04-28T04:32:50;101097.94;;;18.21;35.45
38616;BME280;24370;51.986;4.666;2023-04-28T04:35:16;101092.34;;;17.29;36.85
38616;BME280;24370;51.986;4.666;2023-04-28T04:37:41;101101.31;;;17.75;36.34
38616;BME280;24370;51.986;4.666;2023-04-28T04:40:07;101097.34;;;17.89;36.05
38616;BME280;24370;51.986;4.666;2023-04-28T04:42:33;101105.88;;;17.97;36.36
38616;BME280;24370;51.986;4.666;2023-04-28T04:44:58;101115.88;;;18.12;35.72
38616;BME280;24370;51.986;4.666;2023-04-28T04:47:23;101120.03;;;17.44;37.12
38616;BME280;24370;51.986;4.666;2023-04-28T04:49:51;101123.81;;;18.36;35.97
38616;BME280;24370;51.986;4.666;2023-04-28T04:52:17;101130.50;;;18.46;36.07
38616;BME280;24370;51.986;4.666;2023-04-28T04:54:44;101118.50;;;18.82;35.21
38616;BME280;24370;51.986;4.666;2023-04-28T04:57:10;101105.91;;;18.89;36.20
38616;BME280;24370;51.986;4.666;2023-04-28T04:59:36;101106.91;;;19.08;35.64
38616;BME280;24370;51.986;4.666;2023-04-28T05:02:01;101109.34;;;18.45;37.87
38616;BME280;24370;51.986;4.666;2023-04-28T05:04:27;101104.06;;;18.91;37.16
38616;BME280;24370;51.986;4.666;2023-04-28T05:06:52;101111.75;;;18.29;38.48
38616;BME280;24370;51.986;4.666;2023-04-28T05:09:17;101118.34;;;17.68;40.01
38616;BME280;24370;51.986;4.666;2023-04-28T05:11:43;101123.97;;;17.83;40.81
38616;BME280;24370;51.986;4.666;2023-04-28T05:14:09;101116.88;;;17.85;40.99
38616;BME280;24370;51.986;4.666;2023-04-28T05:16:34;101115.03;;;17.61;41.37
38616;BME280;24370;51.986;4.666;2023-04-28T05:19:00;101119.63;;;17.56;41.51
38616;BME280;24370;51.986;4.666;2023-04-28T05:21:25;101121.50;;;17.78;41.24
38616;BME280;24370;51.986;4.666;2023-04-28T05:23:50;101119.78;;;16.98;42.58
38616;BME280;24370;51.986;4.666;2023-04-28T05:26:16;101123.28;;;16.40;43.74
38616;BME280;24370;51.986;4.666;2023-04-28T05:28:41;101118.41;;;16.85;43.36
38616;BME280;24370;51.986;4.666;2023-04-28T05:31:07;101111.41;;;17.39;42.51
38616;BME280;24370;51.986;4.666;2023-04-28T05:33:32;101104.34;;;17.39;43.06
38616;BME280;24370;51.986;4.666;2023-04-28T05:35:58;101116.13;;;17.56;42.53
38616;BME280;24370;51.986;4.666;2023-04-28T05:38:24;101112.47;;;17.58;42.45
38616;BME280;24370;51.986;4.666;2023-04-28T05:40:49;101085.94;;;17.36;43.96
38616;BME280;24370;51.986;4.666;2023-04-28T05:43:15;101081.19;;;17.21;45.44
38616;BME280;24370;51.986;4.666;2023-04-28T05:45:40;101091.19;;;17.63;44.25
38616;BME280;24370;51.986;4.666;2023-04-28T05:48:05;101083.78;;;16.95;45.41
38616;BME280;24370;51.986;4.666;2023-04-28T05:50:31;101081.59;;;16.80;46.81
38616;BME280;24370;51.986;4.666;2023-04-28T05:52:56;101082.78;;;16.41;47.77
38616;BME280;24370;51.986;4.666;2023-04-28T05:55:22;101078.03;;;17.09;46.88
38616;BME280;24370;51.986;4.666;2023-04-28T05:57:47;101078.63;;;16.91;47.86
38616;BME280;24370;51.986;4.666;2023-04-28T06:00:13;101071.19;;;17.04;47.74
38616;BME280;24370;51.986;4.666;2023-04-28T06:02:39;101073.84;;;16.17;49.64
38616;BME280;24370;51.986;4.666;2023-04-28T06:05:05;101070.56;;;15.77;51.74
38616;BME280;24370;51.986;4.666;2023-04-28T06:07:31;101076.06;;;16.01;51.25
38616;BME280;24370;51.986;4.666;2023-04-28T06:09:56;101074.78;;;17.28;49.08
38616;BME280;24370;51.986;4.666;2023-04-28T06:12:22;101076.19;;;16.85;49.61
38616;BME280;24370;51.986;4.666;2023-04-28T06:14:47;101074.44;;;16.84;49.06
38616;BME280;24370;51.986;4.666;2023-04-28T06:17:12;101076.38;;;17.32;48.21
38616;BME280;24370;51.986;4.666;2023-04-28T06:19:38;101081.78;;;17.29;48.48
38616;BME280;24370;51.986;4.666;2023-04-28T06:22:06;101069.78;;;17.96;47.11
38616;BME280;24370;51.986;4.666;2023-04-28T06:24:31;101073.03;;;16.73;49.58
38616;BME280;24370;51.986;4.666;2023-04-28T06:26:57;101078.38;;;16.70;49.38
38616;BME280;24370;51.986;4.666;2023-04-28T06:29:22;101067.97;;;17.21;49.38
38616;BME280;24370;51.986;4.666;2023-04-28T06:31:48;101077.50;;;17.52;47.82
38616;BME280;24370;51.986;4.666;2023-04-28T06:34:13;101078.75;;;17.15;49.27
38616;BME280;24370;51.986;4.666;2023-04-28T06:36:39;101081.59;;;17.60;48.51
38616;BME280;24370;51.986;4.666;2023-04-28T06:39:05;101067.41;;;17.63;48.22
38616;BME280;24370;51.986;4.666;2023-04-28T06:41:30;101055.25;;;16.78;50.93
38616;BME280;24370;51.986;4.666;2023-04-28T06:43:56;101065.25;;;16.97;50.42
38616;BME280;24370;51.986;4.666;2023-04-28T06:46:21;101060.34;;;17.38;49.88
38616;BME280;24370;51.986;4.666;2023-04-28T06:48:46;101059.75;;;18.04;48.24
38616;BME280;24370;51.986;4.666;2023-04-28T06:51:12;101051.38;;;17.93;49.22
38616;BME280;24370;51.986;4.666;2023-04-28T06:53:37;101048.47;;;17.75;50.12
38616;BME280;24370;51.986;4.666;2023-04-28T06:56:04;101051.28;;;17.20;50.20
38616;BME280;24370;51.986;4.666;2023-04-28T06:58:29;101053.44;;;17.34;51.59
38616;BME280;24370;51.986;4.666;2023-04-28T07:00:56;101051.94;;;17.27;53.24
38616;BME280;24370;51.986;4.666;2023-04-28T07:03:21;101055.25;;;17.32;52.07
38616;BME280;24370;51.986;4.666;2023-04-28T07:05:47;101052.94;;;16.69;55.10
38616;BME280;24370;51.986;4.666;2023-04-28T07:08:12;101056.00;;;17.61;53.06
38616;BME280;24370;51.986;4.666;2023-04-28T07:10:38;101054.31;;;17.60;52.39
38616;BME280;24370;51.986;4.666;2023-04-28T07:13:04;101055.91;;;17.64;53.11
38616;BME280;24370;51.986;4.666;2023-04-28T07:15:29;101062.13;;;17.63;53.56
38616;BME280;24370;51.986;4.666;2023-04-28T07:17:55;101051.09;;;18.46;51.54
38616;BME280;24370;51.986;4.666;2023-04-28T07:20:21;101059.81;;;18.26;52.50
38616;BME280;24370;51.986;4.666;2023-04-28T07:22:46;101063.03;;;18.57;51.82
38616;BME280;24370;51.986;4.666;2023-04-28T07:25:11;101059.03;;;18.46;52.67
38616;BME280;24370;51.986;4.666;2023-04-28T07:27:37;101057.84;;;18.08;54.31
38616;BME280;24370;51.986;4.666;2023-04-28T07:30:02;101059.19;;;18.64;52.75
38616;BME280;24370;51.986;4.666;2023-04-28T07:32:29;101062.28;;;18.07;55.56
38616;BME280;24370;51.986;4.666;2023-04-28T07:34:54;101061.56;;;18.94;51.96
38616;BME280;24370;51.986;4.666;2023-04-28T07:37:19;101060.81;;;18.46;54.08
38616;BME280;24370;51.986;4.666;2023-04-28T07:39:45;101055.16;;;18.77;52.08
38616;BME280;24370;51.986;4.666;2023-04-28T07:42:11;101055.78;;;19.47;52.65
38616;BME280;24370;51.986;4.666;2023-04-28T07:44:37;101057.66;;;19.25;52.67
38616;BME280;24370;51.986;4.666;2023-04-28T07:47:02;101052.44;;;18.57;54.38
38616;BME280;24370;51.986;4.666;2023-04-28T07:49:28;101051.28;;;19.08;54.20
38616;BME280;24370;51.986;4.666;2023-04-28T07:51:54;101053.63;;;19.56;52.00
38616;BME280;24370;51.986;4.666;2023-04-28T07:54:21;101046.34;;;19.61;51.24
38616;BME280;24370;51.986;4.666;2023-04-28T07:56:46;101047.88;;;18.82;54.15
38616;BME280;24370;51.986;4.666;2023-04-28T07:59:12;101047.16;;;19.22;53.72
38616;BME280;24370;51.986;4.666;2023-04-28T08:01:37;101052.78;;;18.93;54.05
38616;BME280;24370;51.986;4.666;2023-04-28T08:04:03;101050.88;;;19.98;51.85
38616;BME280;24370;51.986;4.666;2023-04-28T08:06:28;101053.47;;;19.79;52.03
38616;BME280;24370;51.986;4.666;2023-04-28T08:08:54;101050.03;;;19.77;53.06
38616;BME280;24370;51.986;4.666;2023-04-28T08:11:20;101047.03;;;19.45;53.38
38616;BME280;24370;51.986;4.666;2023-04-28T08:13:46;101053.78;;;19.53;53.07
38616;BME280;24370;51.986;4.666;2023-04-28T08:16:12;101051.16;;;19.32;55.38
38616;BME280;24370;51.986;4.666;2023-04-28T08:18:37;101045.69;;;20.53;50.65
38616;BME280;24370;51.986;4.666;2023-04-28T08:21:04;101048.63;;;19.89;52.58
38616;BME280;24370;51.986;4.666;2023-04-28T08:23:29;101047.56;;;19.93;53.52
38616;BME280;24370;51.986;4.666;2023-04-28T08:25:56;101049.72;;;20.04;53.24
38616;BME280;24370;51.986;4.666;2023-04-28T08:28:21;101054.91;;;19.88;52.25
38616;BME280;24370;51.986;4.666;2023-04-28T08:30:47;101056.50;;;20.11;53.02
38616;BME280;24370;51.986;4.666;2023-04-28T08:33:13;101053.19;;;20.06;54.66
38616;BME280;24370;51.986;4.666;2023-04-28T08:35:38;101057.75;;;20.41;52.62
38616;BME280;24370;51.986;4.666;2023-04-28T08:38:05;101052.94;;;19.92;56.26
38616;BME280;24370;51.986;4.666;2023-04-28T08:40:31;101055.34;;;20.36;55.44
38616;BME280;24370;51.986;4.666;2023-04-28T08:42:57;101047.56;;;20.50;54.28
38616;BME280;24370;51.986;4.666;2023-04-28T08:45:23;101047.84;;;19.87;56.32
38616;BME280;24370;51.986;4.666;2023-04-28T08:47:50;101042.00;;;20.19;56.47
38616;BME280;24370;51.986;4.666;2023-04-28T08:50:20;101041.75;;;20.98;52.80
38616;BME280;24370;51.986;4.666;2023-04-28T08:52:46;101034.53;;;20.82;53.20
38616;BME280;24370;51.986;4.666;2023-04-28T08:55:12;101041.69;;;20.44;54.82
38616;BME280;24370;51.986;4.666;2023-04-28T08:57:45;101036.16;;;20.48;56.12
38616;BME280;24370;51.986;4.666;2023-04-28T09:00:13;101035.53;;;20.43;56.68
38616;BME280;24370;51.986;4.666;2023-04-28T09:02:38;101033.22;;;20.36;57.61
38616;BME280;24370;51.986;4.666;2023-04-28T09:05:07;101033.28;;;21.25;53.80
38616;BME280;24370;51.986;4.666;2023-04-28T09:07:33;101034.63;;;21.84;51.97
38616;BME280;24370;51.986;4.666;2023-04-28T09:10:22;101035.59;;;21.48;53.09
38616;BME280;24370;51.986;4.666;2023-04-28T09:12:51;101030.91;;;21.71;53.16
38616;BME280;24370;51.986;4.666;2023-04-28T09:15:31;101022.50;;;20.93;55.89
38616;BME280;24370;51.986;4.666;2023-04-28T09:17:58;101015.31;;;20.95;56.03
38616;BME280;24370;51.986;4.666;2023-04-28T09:20:26;101032.09;;;19.63;60.22
38616;BME280;24370;51.986;4.666;2023-04-28T09:22:52;101028.03;;;20.88;56.29
38616;BME280;24370;51.986;4.666;2023-04-28T09:25:19;101026.16;;;20.54;58.48
38616;BME280;24370;51.986;4.666;2023-04-28T09:27:46;101022.56;;;21.44;54.42
38616;BME280;24370;51.986;4.666;2023-04-28T09:30:11;101022.97;;;22.03;52.32
38616;BME280;24370;51.986;4.666;2023-04-28T09:32:37;101029.66;;;21.61;54.65
38616;BME280;24370;51.986;4.666;2023-04-28T09:35:03;101018.59;;;21.00;55.73
38616;BME280;24370;51.986;4.666;2023-04-28T09:37:30;101026.56;;;21.35;55.46
38616;BME280;24370;51.986;4.666;2023-04-28T09:39:57;101022.56;;;22.59;51.93
38616;BME280;24370;51.986;4.666;2023-04-28T09:42:39;101013.31;;;22.34;51.98
38616;BME280;24370;51.986;4.666;2023-04-28T09:45:06;101023.28;;;21.12;55.63
38616;BME280;24370;51.986;4.666;2023-04-28T09:47:34;101010.06;;;20.76;56.96
38616;BME280;24370;51.986;4.666;2023-04-28T09:50:02;101021.00;;;20.50;59.62
38616;BME280;24370;51.986;4.666;2023-04-28T09:52:28;101020.78;;;21.27;56.20
38616;BME280;24370;51.986;4.666;2023-04-28T09:54:55;101022.47;;;21.28;56.06
38616;BME280;24370;51.986;4.666;2023-04-28T09:57:21;101024.94;;;20.61;59.25
38616;BME280;24370;51.986;4.666;2023-04-28T09:59:49;101024.97;;;20.78;57.70
38616;BME280;24370;51.986;4.666;2023-04-28T10:02:16;101024.38;;;21.08;58.46
38616;BME280;24370;51.986;4.666;2023-04-28T10:04:44;101028.63;;;21.63;57.87
38616;BME280;24370;51.986;4.666;2023-04-28T10:07:16;101027.53;;;21.50;56.35
38616;BME280;24370;51.986;4.666;2023-04-28T10:09:42;101024.56;;;21.90;55.66
38616;BME280;24370;51.986;4.666;2023-04-28T10:12:19;101018.91;;;22.60;53.65
38616;BME280;24370;51.986;4.666;2023-04-28T10:14:46;101026.56;;;23.12;51.89
38616;BME280;24370;51.986;4.666;2023-04-28T10:17:14;101018.75;;;22.31;53.93
38616;BME280;24370;51.986;4.666;2023-04-28T10:19:41;101023.72;;;22.53;52.25
38616;BME280;24370;51.986;4.666;2023-04-28T10:27:45;101032.66;;;22.04;55.58
38616;BME280;24370;51.986;4.666;2023-04-28T10:30:13;101031.97;;;20.62;63.16
38616;BME280;24370;51.986;4.666;2023-04-28T10:32:39;101030.69;;;20.88;62.10
38616;BME280;24370;51.986;4.666;2023-04-28T10:40:32;101046.38;;;21.96;57.59
38616;BME280;24370;51.986;4.666;2023-04-28T10:42:58;101040.84;;;21.67;57.25
38616;BME280;24370;51.986;4.666;2023-04-28T10:56:19;101052.13;;;21.55;59.92
38616;BME280;24370;51.986;4.666;2023-04-28T10:58:55;101043.56;;;21.48;59.39
38616;BME280;24370;51.986;4.666;2023-04-28T11:01:25;101044.97;;;20.49;62.70
38616;BME280;24370;51.986;4.666;2023-04-28T11:03:53;101040.78;;;21.16;59.20
38616;BME280;24370;51.986;4.666;2023-04-28T11:11:36;101042.22;;;21.06;61.02
38616;BME280;24370;51.986;4.666;2023-04-28T11:16:51;101047.44;;;21.08;59.86
38616;BME280;24370;51.986;4.666;2023-04-28T11:19:22;101045.66;;;20.72;60.87
38616;BME280;24370;51.986;4.666;2023-04-28T11:21:52;101050.31;;;21.38;58.31
38616;BME280;24370;51.986;4.666;2023-04-28T11:24:19;101043.69;;;20.94;59.18
38616;BME280;24370;51.986;4.666;2023-04-28T11:26:44;101045.28;;;22.16;55.51
38616;BME280;24370;51.986;4.666;2023-04-28T11:29:10;101042.97;;;20.73;59.11
38616;BME280;24370;51.986;4.666;2023-04-28T11:31:36;101044.94;;;21.22;58.06
38616;BME280;24370;51.986;4.666;2023-04-28T11:34:10;101050.34;;;22.05;56.61
38616;BME280;24370;51.986;4.666;2023-04-28T11:36:41;101053.84;;;21.90;56.90
38616;BME280;24370;51.986;4.666;2023-04-28T11:39:08;101055.91;;;21.84;59.10
38616;BME280;24370;51.986;4.666;2023-04-28T11:41:35;101055.50;;;22.08;54.71
38616;BME280;24370;51.986;4.666;2023-04-28T11:44:15;101054.38;;;22.76;56.04
38616;BME280;24370;51.986;4.666;2023-04-28T11:46:51;101055.16;;;22.78;54.06
38616;BME280;24370;51.986;4.666;2023-04-28T11:49:23;101066.28;;;21.56;58.77
38616;BME280;24370;51.986;4.666;2023-04-28T11:51:50;101067.22;;;21.55;59.08
38616;BME280;24370;51.986;4.666;2023-04-28T11:54:28;101065.81;;;21.98;57.46
38616;BME280;24370;51.986;4.666;2023-04-28T11:56:55;101064.09;;;21.29;59.90
38616;BME280;24370;51.986;4.666;2023-04-28T11:59:26;101063.59;;;21.03;62.44
38616;BME280;24370;51.986;4.666;2023-04-28T12:01:53;101060.88;;;21.91;59.52
38616;BME280;24370;51.986;4.666;2023-04-28T12:07:14;101072.13;;;22.45;58.11
38616;BME280;24370;51.986;4.666;2023-04-28T12:09:47;101065.50;;;22.52;56.34
38616;BME280;24370;51.986;4.666;2023-04-28T12:12:33;101058.44;;;22.67;57.13
38616;BME280;24370;51.986;4.666;2023-04-28T12:15:00;101073.53;;;22.03;59.63
38616;BME280;24370;51.986;4.666;2023-04-28T12:17:40;101075.91;;;22.08;58.13
38616;BME280;24370;51.986;4.666;2023-04-28T12:20:10;101080.22;;;22.10;58.39
38616;BME280;24370;51.986;4.666;2023-04-28T12:22:48;101078.03;;;21.85;58.64
38616;BME280;24370;51.986;4.666;2023-04-28T12:25:16;101072.19;;;22.60;56.63
38616;BME280;24370;51.986;4.666;2023-04-28T12:27:58;101082.53;;;22.34;59.04
38616;BME280;24370;51.986;4.666;2023-04-28T12:30:27;101080.47;;;22.06;60.00
38616;BME280;24370;51.986;4.666;2023-04-28T12:32:53;101079.19;;;21.97;58.94
38616;BME280;24370;51.986;4.666;2023-04-28T12:35:23;101084.88;;;22.23;58.07
38616;BME280;24370;51.986;4.666;2023-04-28T12:37:50;101085.91;;;22.04;60.97
38616;BME280;24370;51.986;4.666;2023-04-28T12:40:16;101090.97;;;21.05;62.21
38616;BME280;24370;51.986;4.666;2023-04-28T12:42:41;101086.13;;;21.66;62.25
38616;BME280;24370;51.986;4.666;2023-04-28T12:45:06;101089.19;;;20.31;64.96
38616;BME280;24370;51.986;4.666;2023-04-28T12:47:33;101079.41;;;22.42;59.17
38616;BME280;24370;51.986;4.666;2023-04-28T12:49:59;101083.63;;;21.28;62.68
38616;BME280;24370;51.986;4.666;2023-04-28T12:52:24;101092.00;;;20.28;66.49
38616;BME280;24370;51.986;4.666;2023-04-28T12:54:49;101095.28;;;19.95;69.36
38616;BME280;24370;51.986;4.666;2023-04-28T12:57:16;101099.72;;;20.51;66.95
38616;BME280;24370;51.986;4.666;2023-04-28T12:59:42;101088.53;;;20.64;65.41
38616;BME280;24370;51.986;4.666;2023-04-28T13:02:08;101099.34;;;20.78;64.74
38616;BME280;24370;51.986;4.666;2023-04-28T13:04:33;101103.31;;;20.50;65.93
38616;BME280;24370;51.986;4.666;2023-04-28T13:06:59;101099.19;;;21.35;63.64
38616;BME280;24370;51.986;4.666;2023-04-28T13:09:24;101098.16;;;20.86;66.65
38616;BME280;24370;51.986;4.666;2023-04-28T13:11:50;101102.41;;;21.25;61.85
38616;BME280;24370;51.986;4.666;2023-04-28T13:14:18;101113.28;;;20.83;65.22
38616;BME280;24370;51.986;4.666;2023-04-28T13:16:43;101107.69;;;20.90;66.39
38616;BME280;24370;51.986;4.666;2023-04-28T13:19:09;101108.53;;;20.33;66.29